createdAt,value
2018-11-10T00:00:43.212Z,22.67
2018-11-10T00:03:11.776Z,22.42
2018-11-10T00:05:40.610Z,24.23
2018-11-10T00:08:09.615Z,24.18
2018-11-10T00:10:39.061Z,21.35
2018-11-10T00:13:07.955Z,25.97
2018-11-10T00:15:36.612Z,22.07
2018-11-10T00:18:05.876Z,25.82
2018-11-10T00:20:34.174Z,23.98
2018-11-10T00:24:27.122Z,25.77
2018-11-10T00:26:55.704Z,24.55
2018-11-10T00:29:25.152Z,27.82
2018-11-10T00:31:53.422Z,24.47
2018-11-10T00:34:21.926Z,24.75
2018-11-10T00:36:50.277Z,23.75
2018-11-10T00:39:19.412Z,26.70
2018-11-10T00:41:47.957Z,23.27
2018-11-10T00:44:16.595Z,24.23
2018-11-10T00:46:45.441Z,26.07
2018-11-10T00:49:14.328Z,27.65
2018-11-10T00:51:46.225Z,23.02
2018-11-10T00:54:15.547Z,27.02
2018-11-10T00:56:44.422Z,25.90
2018-11-10T00:59:13.472Z,24.35
2018-11-10T01:01:42.260Z,25.35
2018-11-10T01:04:10.589Z,29.10
2018-11-10T01:06:39.077Z,24.45
2018-11-10T01:09:08.570Z,25.02
2018-11-10T01:11:36.991Z,25.48
2018-11-10T01:14:06.188Z,29.35
2018-11-10T01:16:36.753Z,24.12
2018-11-10T01:19:05.603Z,23.42
2018-11-10T01:21:35.078Z,23.40
2018-11-10T01:24:05.832Z,22.58
2018-11-10T01:26:34.479Z,22.77
2018-11-10T01:29:03.858Z,23.00
2018-11-10T01:31:33.123Z,22.32
2018-11-10T01:34:01.877Z,24.32
2018-11-10T01:36:30.948Z,23.85
2018-11-10T01:39:02.118Z,27.45
2018-11-10T01:41:30.783Z,27.73
2018-11-10T01:43:59.350Z,22.87
2018-11-10T01:46:30.476Z,26.75
2018-11-10T01:49:00.152Z,26.80
2018-11-10T01:51:28.829Z,23.95
2018-11-10T01:53:58.592Z,24.37
2018-11-10T01:56:28.506Z,22.80
2018-11-10T01:58:57.529Z,26.25
2018-11-10T02:01:30.421Z,22.67
2018-11-10T02:03:59.401Z,23.65
2018-11-10T02:06:28.729Z,23.75
2018-11-10T02:08:57.197Z,28.87
2018-11-10T02:11:26.105Z,26.20
2018-11-10T02:13:54.711Z,24.52
2018-11-10T02:16:23.128Z,24.00
2018-11-10T02:18:51.512Z,28.73
2018-11-10T02:21:19.770Z,21.97
2018-11-10T02:23:48.468Z,21.55
2018-11-10T02:26:16.765Z,26.62
2018-11-10T02:28:45.099Z,24.90
2018-11-10T02:31:13.442Z,22.85
2018-11-10T02:33:41.768Z,24.32
2018-11-10T02:36:10.067Z,22.82
2018-11-10T02:38:38.481Z,24.95
2018-11-10T02:41:06.727Z,23.18
2018-11-10T02:43:35.733Z,21.75
2018-11-10T02:46:04.070Z,25.82
2018-11-10T02:48:32.529Z,25.30
2018-11-10T02:51:01.770Z,24.57
2018-11-10T02:53:30.267Z,21.93
2018-11-10T02:55:58.659Z,27.45
2018-11-10T02:58:26.967Z,31.37
2018-11-10T03:00:55.255Z,22.82
2018-11-10T03:03:24.551Z,24.47
2018-11-10T03:05:52.861Z,21.77
2018-11-10T03:08:21.172Z,24.47
2018-11-10T03:10:49.494Z,24.45
2018-11-10T03:13:17.846Z,26.15
2018-11-10T03:15:46.230Z,23.32
2018-11-10T03:18:14.550Z,24.60
2018-11-10T03:20:42.795Z,22.55
2018-11-10T03:23:11.299Z,23.73
2018-11-10T03:25:39.691Z,20.10
2018-11-10T03:28:08.163Z,24.55
2018-11-10T03:30:36.629Z,23.02
2018-11-10T03:33:05.349Z,23.90
2018-11-10T03:35:33.739Z,20.50
2018-11-10T03:38:02.049Z,21.82
2018-11-10T03:40:30.353Z,18.60
2018-11-10T03:42:58.691Z,17.60
2018-11-10T03:45:26.976Z,19.95
2018-11-10T03:47:55.367Z,18.92
2018-11-10T03:50:23.666Z,18.10
2018-11-10T03:52:51.948Z,18.07
2018-11-10T03:55:20.242Z,18.73
2018-11-10T03:57:48.563Z,24.18
2018-11-10T04:00:16.887Z,17.95
2018-11-10T04:02:46.351Z,18.80
2018-11-10T04:05:15.285Z,19.12
2018-11-10T04:07:44.773Z,19.05
2018-11-10T04:10:13.909Z,14.85
2018-11-10T04:12:42.430Z,16.10
2018-11-10T04:15:10.731Z,16.97
2018-11-10T04:17:39.054Z,15.38
2018-11-10T04:20:08.474Z,14.85
2018-11-10T04:22:37.755Z,18.75
2018-11-10T04:25:07.859Z,14.68
2018-11-10T04:27:36.822Z,15.78
2018-11-10T04:30:06.460Z,16.20
2018-11-10T04:32:35.575Z,14.90
2018-11-10T04:35:04.172Z,14.03
2018-11-10T04:37:32.474Z,14.38
2018-11-10T04:40:00.735Z,15.28
2018-11-10T04:42:29.067Z,14.93
2018-11-10T04:44:57.499Z,13.40
2018-11-10T04:47:25.803Z,14.28
2018-11-10T04:49:54.120Z,13.70
2018-11-10T04:52:22.517Z,11.45
2018-11-10T04:54:51.673Z,15.45
2018-11-10T04:57:20.794Z,16.57
2018-11-10T04:59:49.145Z,12.55
2018-11-10T05:02:17.420Z,16.02
2018-11-10T05:04:45.653Z,13.70
2018-11-10T05:07:13.956Z,13.62
2018-11-10T05:09:42.261Z,13.72
2018-11-10T05:12:10.564Z,12.95
2018-11-10T05:14:39.744Z,14.58
2018-11-10T05:17:08.011Z,13.32
2018-11-10T05:19:36.323Z,16.48
2018-11-10T05:22:04.853Z,15.30
2018-11-10T05:24:33.969Z,14.73
2018-11-10T05:27:02.482Z,14.25
2018-11-10T05:29:30.788Z,14.83
2018-11-10T05:32:00.025Z,12.65
2018-11-10T05:34:28.413Z,12.23
2018-11-10T05:36:56.721Z,12.07
2018-11-10T05:39:25.030Z,11.80
2018-11-10T05:41:53.360Z,12.73
2018-11-10T05:44:21.645Z,12.65
2018-11-10T05:46:49.940Z,11.38
2018-11-10T05:49:18.216Z,13.13
2018-11-10T05:51:46.487Z,11.65
2018-11-10T05:54:14.731Z,11.70
2018-11-10T05:56:42.996Z,9.90
2018-11-10T05:59:11.531Z,11.85
2018-11-10T06:01:39.837Z,10.38
2018-11-10T06:04:09.161Z,9.63
2018-11-10T06:06:37.712Z,10.48
2018-11-10T06:09:08.640Z,9.50
2018-11-10T06:11:37.276Z,8.03
2018-11-10T06:14:05.752Z,9.45
2018-11-10T06:16:34.380Z,8.20
2018-11-10T06:19:02.865Z,9.50
2018-11-10T06:21:31.243Z,7.42
2018-11-10T06:23:59.583Z,6.75
2018-11-10T06:26:28.707Z,6.90
2018-11-10T06:28:57.072Z,5.37
2018-11-10T06:31:25.454Z,8.40
2018-11-10T06:33:54.925Z,8.98
2018-11-10T06:36:23.218Z,6.58
2018-11-10T06:38:51.564Z,8.25
2018-11-10T06:41:19.890Z,5.67
2018-11-10T06:43:48.151Z,8.28
2018-11-10T06:46:16.438Z,7.78
2018-11-10T06:48:45.056Z,9.50
2018-11-10T06:51:13.646Z,9.70
2018-11-10T06:53:42.542Z,7.60
2018-11-10T06:56:11.047Z,6.47
2018-11-10T06:58:40.672Z,8.98
2018-11-10T07:01:09.074Z,9.28
2018-11-10T07:03:37.424Z,6.83
2018-11-10T07:06:06.297Z,6.37
2018-11-10T07:08:34.616Z,9.20
2018-11-10T07:11:02.935Z,7.60
2018-11-10T07:13:31.259Z,7.03
2018-11-10T07:15:59.596Z,8.43
2018-11-10T07:18:27.850Z,9.18
2018-11-10T07:20:56.115Z,10.28
2018-11-10T07:23:24.439Z,8.98
2018-11-10T07:25:52.895Z,10.32
2018-11-10T07:28:21.331Z,7.80
2018-11-10T07:30:49.897Z,10.75
2018-11-10T07:33:18.446Z,8.50
2018-11-10T07:35:47.150Z,8.10
2018-11-10T07:38:15.684Z,10.80
2018-11-10T07:40:44.051Z,9.08
2018-11-10T07:43:12.460Z,9.55
2018-11-10T07:45:40.687Z,9.08
2018-11-10T07:48:08.985Z,6.45
2018-11-10T07:50:37.363Z,10.80
2018-11-10T07:53:05.824Z,13.98
2018-11-10T07:55:34.213Z,8.55
2018-11-10T07:58:35.855Z,9.30
2018-11-10T08:01:04.251Z,14.70
2018-11-10T08:03:32.533Z,10.03
2018-11-10T08:06:00.831Z,10.40
2018-11-10T08:08:29.839Z,9.93
2018-11-10T08:10:58.503Z,9.60
2018-11-10T08:13:27.024Z,8.68
2018-11-10T08:15:55.414Z,11.35
2018-11-10T08:18:24.563Z,13.35
2018-11-10T08:20:52.966Z,10.20
2018-11-10T08:23:21.573Z,11.28
2018-11-10T08:25:49.848Z,9.93
2018-11-10T08:28:18.124Z,8.40
2018-11-10T08:30:53.128Z,10.13
2018-11-10T08:33:21.400Z,9.45
2018-11-10T08:35:49.739Z,9.45
2018-11-10T08:38:18.004Z,11.90
2018-11-10T08:40:46.545Z,8.13
2018-11-10T08:43:14.997Z,9.10
2018-11-10T08:45:43.643Z,11.10
2018-11-10T08:48:12.164Z,9.30
2018-11-10T08:50:40.428Z,10.53
2018-11-10T08:53:08.906Z,10.30
2018-11-10T08:55:37.407Z,10.95
2018-11-10T08:58:06.627Z,9.38
2018-11-10T09:00:35.118Z,11.18
2018-11-10T09:03:03.907Z,8.13
2018-11-10T09:05:32.461Z,9.88
2018-11-10T09:08:00.902Z,7.35
2018-11-10T09:10:29.391Z,6.85
2018-11-10T09:12:57.686Z,6.37
2018-11-10T09:15:26.020Z,6.72
2018-11-10T09:17:54.544Z,6.92
2018-11-10T09:20:22.747Z,5.40
2018-11-10T09:22:51.060Z,7.72
2018-11-10T09:25:19.402Z,6.75
2018-11-10T09:27:47.694Z,5.00
2018-11-10T09:30:16.982Z,11.45
2018-11-10T09:32:45.285Z,3.22
2018-11-10T09:35:14.475Z,4.30
2018-11-10T09:37:43.259Z,4.80
2018-11-10T09:40:14.232Z,5.50
2018-11-10T09:42:43.314Z,5.08
2018-11-10T09:45:13.413Z,4.45
2018-11-10T09:47:42.115Z,7.25
2018-11-10T09:50:13.083Z,4.97
2018-11-10T09:52:44.009Z,6.72
2018-11-10T09:55:13.045Z,4.95
2018-11-10T09:57:41.677Z,6.83
2018-11-10T10:00:14.783Z,9.65
2018-11-10T10:02:44.009Z,6.87
2018-11-10T10:05:13.204Z,4.12
2018-11-10T10:07:42.657Z,4.47
2018-11-10T10:10:12.842Z,7.90
2018-11-10T10:12:41.813Z,6.62
2018-11-10T10:15:12.232Z,3.70
2018-11-10T10:17:41.649Z,6.22
2018-11-10T10:20:12.335Z,6.47
2018-11-10T10:22:40.711Z,6.83
2018-11-10T10:25:12.298Z,4.30
2018-11-10T10:27:40.679Z,5.53
2018-11-10T10:30:14.503Z,9.85
2018-11-10T10:32:43.646Z,6.70
2018-11-10T10:35:12.917Z,7.10
2018-11-10T10:37:41.180Z,7.10
2018-11-10T10:40:11.416Z,5.33
2018-11-10T10:42:39.917Z,6.67
2018-11-10T10:45:12.401Z,5.20
2018-11-10T10:47:41.111Z,8.10
2018-11-10T10:50:11.351Z,3.98
2018-11-10T10:52:39.654Z,4.00
2018-11-10T10:55:08.468Z,5.15
2018-11-10T10:57:36.764Z,4.75
2018-11-10T11:00:09.883Z,5.40
2018-11-10T11:02:43.910Z,7.65
2018-11-10T11:05:16.519Z,6.28
2018-11-10T11:07:44.951Z,5.75
2018-11-10T11:10:13.323Z,6.55
2018-11-10T11:12:41.676Z,10.72
2018-11-10T11:15:10.131Z,5.95
2018-11-10T11:17:38.488Z,4.83
2018-11-10T11:20:07.221Z,6.90
2018-11-10T11:22:35.628Z,6.25
2018-11-10T11:25:04.167Z,7.67
2018-11-10T11:27:32.521Z,4.97
2018-11-10T11:30:00.845Z,9.13
2018-11-10T11:32:29.814Z,6.53
2018-11-10T11:35:01.457Z,4.25
2018-11-10T11:37:30.060Z,3.85
2018-11-10T11:39:59.688Z,5.00
2018-11-10T11:42:28.268Z,5.85
2018-11-10T11:44:57.587Z,4.28
2018-11-10T11:47:27.158Z,3.02
2018-11-10T11:49:55.921Z,5.10
2018-11-10T11:52:24.211Z,5.10
2018-11-10T11:54:52.540Z,5.45
2018-11-10T11:57:23.943Z,3.67
2018-11-10T11:59:52.293Z,4.67
2018-11-10T12:02:21.057Z,7.22
2018-11-10T12:04:49.370Z,3.95
2018-11-10T12:07:17.820Z,4.78
2018-11-10T12:09:46.175Z,5.20
2018-11-10T12:12:14.672Z,6.17
2018-11-10T12:14:43.282Z,3.92
2018-11-10T12:17:11.675Z,3.30
2018-11-10T12:19:40.268Z,5.25
2018-11-10T12:22:08.754Z,3.02
2018-11-10T12:24:37.440Z,3.55
2018-11-10T12:27:05.946Z,3.52
2018-11-10T12:29:34.538Z,4.60
2018-11-10T12:32:03.343Z,5.05
2018-11-10T12:34:31.628Z,7.62
2018-11-10T12:36:59.927Z,7.35
2018-11-10T12:39:28.260Z,4.17
2018-11-10T12:41:57.607Z,4.92
2018-11-10T12:44:25.880Z,7.05
2018-11-10T12:46:54.321Z,9.45
2018-11-10T12:49:22.823Z,4.50
2018-11-10T12:51:51.204Z,4.90
2018-11-10T12:54:19.582Z,3.62
2018-11-10T12:56:47.890Z,7.65
2018-11-10T12:59:17.775Z,7.20
2018-11-10T13:01:46.151Z,4.92
2018-11-10T13:04:15.116Z,4.70
2018-11-10T13:06:43.663Z,4.50
2018-11-10T13:09:12.445Z,4.17
2018-11-10T13:11:41.174Z,7.00
2018-11-10T13:14:11.308Z,3.75
2018-11-10T13:16:40.073Z,7.33
2018-11-10T13:19:09.816Z,6.20
2018-11-10T13:21:38.524Z,4.17
2018-11-10T13:24:07.022Z,4.50
2018-11-10T13:26:35.299Z,6.85
2018-11-10T13:29:03.793Z,6.87
2018-11-10T13:31:32.658Z,6.53
2018-11-10T13:34:00.937Z,5.62
2018-11-10T13:36:29.360Z,5.28
2018-11-10T13:38:57.990Z,6.05
2018-11-10T13:41:26.334Z,4.90
2018-11-10T13:43:54.846Z,5.83
2018-11-10T13:46:23.422Z,5.08
2018-11-10T13:48:51.995Z,6.00
2018-11-10T13:51:20.944Z,4.47
2018-11-10T13:53:49.459Z,6.55
2018-11-10T13:56:18.004Z,4.92
2018-11-10T13:58:46.521Z,5.10
2018-11-10T14:01:14.852Z,3.95
2018-11-10T14:03:43.346Z,6.60
2018-11-10T14:06:11.690Z,8.58
2018-11-10T14:08:39.972Z,6.72
2018-11-10T14:11:08.321Z,5.87
2018-11-10T14:13:36.622Z,6.22
2018-11-10T14:16:05.043Z,5.53
2018-11-10T14:18:33.399Z,5.53
2018-11-10T14:21:02.102Z,4.33
2018-11-10T14:23:30.684Z,4.55
2018-11-10T14:25:58.986Z,7.05
2018-11-10T14:28:27.582Z,4.90
2018-11-10T14:30:56.125Z,8.55
2018-11-10T14:33:24.972Z,4.97
2018-11-10T14:35:53.527Z,5.08
2018-11-10T14:38:21.867Z,5.22
2018-11-10T14:40:50.146Z,5.22
2018-11-10T14:43:18.476Z,4.85
2018-11-10T14:45:46.747Z,5.58
2018-11-10T14:48:15.085Z,4.65
2018-11-10T14:50:43.399Z,5.67
2018-11-10T14:53:11.897Z,5.72
2018-11-10T14:55:39.980Z,4.53
2018-11-10T14:58:08.295Z,7.05
2018-11-10T15:00:36.650Z,3.75
2018-11-10T15:03:05.180Z,4.80
2018-11-10T15:05:33.657Z,4.95
2018-11-10T15:08:02.326Z,5.97
2018-11-10T15:10:30.835Z,4.83
2018-11-10T15:12:59.246Z,6.17
2018-11-10T15:15:28.129Z,4.50
2018-11-10T15:17:56.647Z,5.58
2018-11-10T15:20:24.747Z,9.80
2018-11-10T15:22:53.496Z,8.05
2018-11-10T15:25:21.908Z,6.37
2018-11-10T15:27:50.128Z,8.73
2018-11-10T15:30:19.811Z,5.72
2018-11-10T15:32:48.555Z,5.20
2018-11-10T15:35:18.334Z,8.30
2018-11-10T15:37:47.992Z,16.93
2018-11-10T15:40:16.919Z,7.22
2018-11-10T15:42:45.305Z,33.20
2018-11-10T15:45:15.217Z,24.50
2018-11-10T15:47:44.525Z,19.87
2018-11-10T15:50:14.299Z,21.02
2018-11-10T15:52:42.868Z,18.87
2018-11-10T15:55:12.531Z,14.35
2018-11-10T15:57:41.568Z,42.33
2018-11-10T16:00:12.653Z,18.75
2018-11-10T16:02:41.452Z,36.90
2018-11-10T16:05:10.985Z,21.40
2018-11-10T16:07:39.813Z,37.70
2018-11-10T16:10:08.452Z,20.97
2018-11-10T16:12:37.884Z,24.10
2018-11-10T16:15:09.102Z,13.80
2018-11-10T16:17:37.487Z,9.73
2018-11-10T16:20:08.382Z,11.20
2018-11-10T16:22:36.656Z,15.50
2018-11-10T16:25:05.981Z,10.25
2018-11-10T16:27:34.295Z,11.15
2018-11-10T16:30:02.633Z,8.50
2018-11-10T16:32:30.907Z,8.35
2018-11-10T16:34:59.184Z,13.22
2018-11-10T16:37:27.502Z,10.60
2018-11-10T16:39:55.785Z,10.65
2018-11-10T16:42:24.078Z,9.15
2018-11-10T16:44:52.517Z,13.58
2018-11-10T16:47:21.220Z,11.78
2018-11-10T16:49:49.954Z,21.23
2018-11-10T16:52:18.571Z,37.17
2018-11-10T16:54:47.314Z,163.50
2018-11-10T16:57:15.990Z,131.70
2018-11-10T16:59:44.890Z,8.93
2018-11-10T17:02:13.331Z,60.45
2018-11-10T17:04:41.639Z,17.30
2018-11-10T17:07:10.003Z,14.35
2018-11-10T17:09:38.341Z,12.23
2018-11-10T17:12:10.262Z,26.27
2018-11-10T17:14:39.621Z,48.78
2018-11-10T17:17:08.899Z,25.55
2018-11-10T17:19:37.327Z,9.83
2018-11-10T17:22:06.041Z,10.60
2018-11-10T17:24:34.301Z,15.05
2018-11-10T17:27:02.700Z,40.45
2018-11-10T17:29:31.108Z,113.72
2018-11-10T17:31:59.548Z,26.60
2018-11-10T17:34:29.211Z,33.13
2018-11-10T17:36:57.995Z,11.95
2018-11-10T17:39:27.311Z,9.68
2018-11-10T17:41:56.017Z,10.75
2018-11-10T17:44:24.651Z,5.55
2018-11-10T17:46:53.099Z,15.83
2018-11-10T17:49:21.445Z,6.87
2018-11-10T17:51:49.760Z,9.45
2018-11-10T17:54:18.092Z,6.80
2018-11-10T17:56:47.085Z,15.50
2018-11-10T17:59:15.501Z,5.72
2018-11-10T18:01:43.965Z,23.35
2018-11-10T18:04:12.245Z,7.97
2018-11-10T18:06:41.437Z,26.27
2018-11-10T18:09:11.106Z,10.03
2018-11-10T18:11:40.109Z,6.03
2018-11-10T18:14:08.755Z,7.17
2018-11-10T18:16:37.079Z,5.33
2018-11-10T18:19:05.735Z,5.50
2018-11-10T18:21:34.250Z,5.20
2018-11-10T18:24:03.024Z,4.22
2018-11-10T18:26:31.986Z,7.05
2018-11-10T18:29:00.948Z,4.37
2018-11-10T18:31:29.350Z,4.15
2018-11-10T18:33:57.760Z,3.70
2018-11-10T18:36:26.119Z,5.87
2018-11-10T18:38:54.584Z,4.08
2018-11-10T18:41:23.017Z,2.67
2018-11-10T18:43:51.405Z,3.80
2018-11-10T18:46:19.740Z,4.42
2018-11-10T18:48:48.080Z,3.33
2018-11-10T18:51:16.393Z,3.35
2018-11-10T18:53:44.792Z,5.83
2018-11-10T18:56:13.862Z,3.90
2018-11-10T18:58:42.636Z,4.85
2018-11-10T19:01:11.185Z,4.58
2018-11-10T19:03:39.975Z,3.80
2018-11-10T19:06:09.155Z,3.87
2018-11-10T19:08:37.824Z,5.20
2018-11-10T19:11:08.160Z,4.62
2018-11-10T19:13:36.944Z,3.58
2018-11-10T19:16:05.431Z,4.37
2018-11-10T19:18:34.040Z,4.47
2018-11-10T19:21:02.578Z,5.60
2018-11-10T19:23:30.835Z,6.05
2018-11-10T19:25:59.599Z,2.75
2018-11-10T19:28:33.358Z,2.95
2018-11-10T19:31:01.864Z,3.98
2018-11-10T19:33:30.367Z,4.92
2018-11-10T19:35:58.872Z,2.50
2018-11-10T19:38:27.499Z,3.87
2018-11-10T19:40:56.014Z,6.55
2018-11-10T19:43:24.479Z,5.20
2018-11-10T19:45:56.850Z,3.42
2018-11-10T19:48:25.861Z,4.72
2018-11-10T19:50:54.422Z,2.00
2018-11-10T19:53:22.801Z,4.17
2018-11-10T19:55:51.215Z,5.75
2018-11-10T19:58:19.824Z,2.92
2018-11-10T20:00:48.925Z,3.52
2018-11-10T20:03:18.512Z,6.00
2018-11-10T20:05:48.253Z,3.70
2018-11-10T20:08:16.841Z,7.37
2018-11-10T20:10:45.289Z,4.70
2018-11-10T20:13:13.620Z,5.58
2018-11-10T20:15:42.127Z,4.20
2018-11-10T20:18:10.421Z,5.70
2018-11-10T20:20:38.748Z,4.25
2018-11-10T20:23:07.063Z,6.10
2018-11-10T20:25:35.427Z,5.40
2018-11-10T20:28:04.138Z,4.20
2018-11-10T20:30:32.567Z,3.83
2018-11-10T20:33:01.010Z,4.37
2018-11-10T20:35:29.551Z,7.78
2018-11-10T20:37:57.988Z,4.05
2018-11-10T20:40:26.605Z,4.10
2018-11-10T20:42:55.763Z,7.05
2018-11-10T20:45:24.549Z,4.85
2018-11-10T20:47:53.457Z,6.25
2018-11-10T20:50:22.162Z,5.00
2018-11-10T20:52:50.718Z,4.95
2018-11-10T20:55:19.157Z,6.45
2018-11-10T20:57:47.452Z,5.65
2018-11-10T21:00:17.487Z,4.78
2018-11-10T21:02:46.358Z,6.62
2018-11-10T21:05:16.070Z,4.75
2018-11-10T21:07:44.372Z,5.78
2018-11-10T21:10:15.432Z,4.78
2018-11-10T21:12:44.780Z,7.08
2018-11-10T21:15:14.060Z,5.92
2018-11-10T21:17:42.448Z,4.80
2018-11-10T21:20:11.881Z,4.40
2018-11-10T21:22:40.583Z,8.25
2018-11-10T21:25:11.084Z,4.92
2018-11-10T21:27:40.038Z,8.48
2018-11-10T21:30:09.676Z,9.43
2018-11-10T21:32:38.047Z,6.53
2018-11-10T21:35:06.864Z,6.12
2018-11-10T21:37:35.543Z,8.18
2018-11-10T21:40:05.218Z,4.20
2018-11-10T21:42:33.800Z,5.83
2018-11-10T21:45:03.012Z,4.22
2018-11-10T21:47:31.912Z,4.85
2018-11-10T21:50:00.739Z,5.90
2018-11-10T21:52:29.135Z,5.65
2018-11-10T21:54:57.464Z,4.37
2018-11-10T21:57:25.831Z,4.50
2018-11-10T21:59:54.179Z,5.45
2018-11-10T22:02:22.541Z,4.40
2018-11-10T22:04:50.810Z,5.97
2018-11-10T22:07:19.117Z,6.75
2018-11-10T22:09:48.324Z,7.22
2018-11-10T22:12:16.673Z,5.55
2018-11-10T22:14:45.163Z,4.28
2018-11-10T22:17:13.748Z,3.62
2018-11-10T22:19:42.228Z,3.70
2018-11-10T22:22:10.857Z,4.40
2018-11-10T22:24:39.802Z,3.90
2018-11-10T22:27:08.493Z,3.52
2018-11-10T22:29:37.276Z,4.28
2018-11-10T22:32:05.676Z,4.28
2018-11-10T22:34:34.006Z,4.45
2018-11-10T22:37:02.308Z,5.28
2018-11-10T22:39:30.635Z,6.25
2018-11-10T22:41:59.018Z,5.05
2018-11-10T22:44:27.507Z,6.08
2018-11-10T22:46:55.917Z,6.05
2018-11-10T22:49:24.314Z,4.78
2018-11-10T22:51:52.624Z,3.95
2018-11-10T22:54:20.991Z,5.35
2018-11-10T22:56:49.655Z,4.10
2018-11-10T22:59:18.204Z,4.22
2018-11-10T23:01:46.678Z,5.78
2018-11-10T23:04:15.577Z,5.08
2018-11-10T23:06:44.389Z,5.97
2018-11-10T23:09:12.738Z,4.45
2018-11-10T23:11:41.064Z,6.37
2018-11-10T23:14:09.363Z,5.60
2018-11-10T23:16:37.643Z,12.33
2018-11-10T23:19:06.229Z,6.35
2018-11-10T23:21:34.547Z,6.25
2018-11-10T23:24:03.497Z,4.85
2018-11-10T23:26:31.806Z,4.97
2018-11-10T23:29:01.011Z,5.70
2018-11-10T23:31:29.615Z,6.78
2018-11-10T23:33:58.048Z,4.37
2018-11-10T23:36:26.611Z,4.80
2018-11-10T23:38:55.101Z,4.45
2018-11-10T23:41:23.682Z,7.28
2018-11-10T23:43:52.107Z,4.95
2018-11-10T23:46:20.474Z,4.17
2018-11-10T23:48:48.779Z,4.05
2018-11-10T23:51:17.083Z,4.97
2018-11-10T23:53:46.222Z,4.70
2018-11-10T23:56:14.644Z,4.70
2018-11-10T23:58:42.923Z,6.20
